Portada
METAR-TAF:

METAR-TAF

Aeropuertos :

Quincy Regional Airport (Baldwin Field)

Quincy, Illinois, Estados Unidos

latitud: 39-56-33N, longitud: 091-11-40W, altitud: 234 m

Observación

El informe se hizo hace 48 minutos, a las 06:54 UTC
Viento 4 kt del norte-noreste
Temperatura 15°C
Humedad 77%
Presión 1024 hPa
Visibilidad: 16.1 km
Cielo despejado

METAR: KUIN 310654Z AUTO 03004KT 10SM CLR 15/11 A3024 RMK AO2 SLP235 T01500106

Hora: 02:42 (07:42 UTC)

Pronóstico

El informe se hizo hace 2 horas y 22 minutos, a las 05:20 UTC
Pronóstico válido del 31 a las 06 UTC al 01 a las 06 UTC
Viento 5 kt del norte-noroeste
Visibilidad: 10 km
Escasas nubes a una altura de 15000 ft
A partir de las 31 a las 1000 UTC
Viento 7 kt del este
Visibilidad: 10 km
Nubes dispersas a una altura de 8000 ft

TAF: KUIN 310520Z 3106/0106 34005KT P6SM FEW150 FM311000 10007KT P6SM SCT080

Observaciones y pronósticos meteorológicos de más de 4000 aeropuertos (mensajes METAR y TAF).

Los puntos amarillos y rojos representan las estaciones disponibles.

Ponga el ratón en el punto deseado para ver el nombre de la estación.

Haga clic para ver las observaciones y los pronósticos meteorológicos.

Para cambiar el mapa : haga clic en los botones verdes con una cruz de color negro para hacer un zoom, en el botón verde con un guión para alejar o en las flechas verdes para mapas adyacentes.


METAR-TAF: